createdAt,value
2023-02-28T00:00:22.699Z,3.90
2023-02-28T00:02:52.079Z,4.70
2023-02-28T00:05:24.118Z,4.80
2023-02-28T00:07:54.159Z,4.70
2023-02-28T00:10:27.667Z,4.90
2023-02-28T00:13:01.591Z,4.80
2023-02-28T00:15:30.265Z,5.00
2023-02-28T00:17:58.745Z,4.50
2023-02-28T00:20:28.048Z,5.10
2023-02-28T00:22:56.736Z,4.70
2023-02-28T00:25:27.881Z,4.70
2023-02-28T00:27:56.874Z,4.90
2023-02-28T00:30:25.152Z,3.70
2023-02-28T00:32:54.455Z,4.10
2023-02-28T00:35:22.968Z,4.60
2023-02-28T00:37:51.527Z,4.60
2023-02-28T00:42:36.618Z,4.30
2023-02-28T00:45:06.026Z,4.30
2023-02-28T00:47:38.601Z,4.10
2023-02-28T00:50:09.697Z,4.40
2023-02-28T00:52:38.841Z,4.00
2023-02-28T00:55:07.778Z,4.40
2023-02-28T00:57:36.223Z,4.00
2023-02-28T01:00:06.780Z,4.60
2023-02-28T01:02:35.548Z,4.40
2023-02-28T01:05:07.683Z,4.60
2023-02-28T01:07:36.403Z,3.80
2023-02-28T01:10:05.832Z,4.60
2023-02-28T01:12:34.229Z,4.10
2023-02-28T01:15:03.083Z,5.10
2023-02-28T01:17:32.218Z,4.30
2023-02-28T01:20:03.026Z,4.70
2023-02-28T01:22:32.015Z,3.50
2023-02-28T01:25:01.011Z,4.60
2023-02-28T01:27:30.314Z,4.70
2023-02-28T01:30:03.841Z,4.80
2023-02-28T01:32:32.203Z,5.30
2023-02-28T01:35:00.482Z,5.70
2023-02-28T01:37:29.381Z,4.50
2023-02-28T01:39:58.055Z,4.40
2023-02-28T01:42:26.845Z,4.60
2023-02-28T01:45:24.927Z,4.90
2023-02-28T01:47:55.765Z,5.10
2023-02-28T01:50:26.397Z,4.80
2023-02-28T01:52:56.243Z,4.70
2023-02-28T01:55:29.673Z,5.10
2023-02-28T01:58:03.009Z,5.50
2023-02-28T02:00:31.903Z,5.90
2023-02-28T02:03:06.318Z,5.50
2023-02-28T02:05:35.629Z,5.10
2023-02-28T02:08:07.952Z,4.80
2023-02-28T02:10:43.251Z,5.10
2023-02-28T02:13:14.715Z,4.60
2023-02-28T02:15:55.284Z,4.80
2023-02-28T02:18:29.893Z,4.70
2023-02-28T02:21:13.638Z,5.00
2023-02-28T02:24:00.657Z,5.20
2023-02-28T02:26:35.490Z,5.40
2023-02-28T02:29:44.217Z,5.40
2023-02-28T02:32:18.090Z,4.80
2023-02-28T02:35:30.870Z,4.30
2023-02-28T02:38:23.339Z,4.30
2023-02-28T02:41:04.685Z,4.20
2023-02-28T02:43:37.058Z,4.00
2023-02-28T02:46:13.646Z,4.40
2023-02-28T02:48:42.020Z,4.30
2023-02-28T02:51:18.752Z,3.90
2023-02-28T02:53:52.944Z,4.60
2023-02-28T02:56:24.670Z,4.70
2023-02-28T02:58:53.256Z,4.40
2023-02-28T03:01:29.154Z,4.40
2023-02-28T03:04:06.823Z,4.60
2023-02-28T03:06:36.427Z,4.70
2023-02-28T03:09:06.147Z,4.60
2023-02-28T03:11:34.521Z,3.50
2023-02-28T03:14:31.892Z,4.40
2023-02-28T03:17:25.148Z,4.40
2023-02-28T03:20:06.480Z,4.40
2023-02-28T03:22:58.789Z,4.80
2023-02-28T03:25:32.077Z,4.50
2023-02-28T03:28:03.844Z,4.50
2023-02-28T03:30:41.129Z,4.70
2023-02-28T03:33:14.017Z,4.10
2023-02-28T03:36:04.213Z,3.70
2023-02-28T03:38:35.471Z,4.60
2023-02-28T03:41:19.001Z,4.30
2023-02-28T03:43:55.059Z,4.70
2023-02-28T03:46:26.192Z,4.60
2023-02-28T03:49:06.165Z,4.30
2023-02-28T03:51:36.590Z,5.00
2023-02-28T03:54:08.524Z,4.90
2023-02-28T03:56:44.822Z,4.70
2023-02-28T03:59:17.810Z,4.70
2023-02-28T04:01:47.711Z,4.50
2023-02-28T04:04:16.977Z,4.30
2023-02-28T04:06:51.693Z,4.40
2023-02-28T04:09:20.147Z,4.30
2023-02-28T04:11:53.184Z,4.50
2023-02-28T04:14:21.517Z,3.70
2023-02-28T04:16:49.877Z,4.70
2023-02-28T04:19:18.279Z,4.90
2023-02-28T04:21:48.426Z,5.60
2023-02-28T04:24:24.463Z,5.10
2023-02-28T04:26:56.379Z,3.70
2023-02-28T04:29:29.627Z,4.30
2023-02-28T04:32:02.169Z,4.00
2023-02-28T04:34:31.650Z,4.20
2023-02-28T04:37:16.988Z,3.30
2023-02-28T04:39:46.409Z,4.60
2023-02-28T04:42:16.219Z,3.90
2023-02-28T04:44:46.336Z,4.20
2023-02-28T04:47:15.025Z,4.00
2023-02-28T04:49:44.128Z,3.80
2023-02-28T04:52:12.507Z,4.40
2023-02-28T04:54:42.934Z,3.90
2023-02-28T04:57:11.735Z,4.20
2023-02-28T04:59:41.128Z,4.40
2023-02-28T05:02:10.086Z,4.50
2023-02-28T05:04:38.640Z,4.80
2023-02-28T05:07:07.198Z,4.60
2023-02-28T05:09:36.089Z,4.30
2023-02-28T05:12:08.156Z,4.90
2023-02-28T05:14:38.285Z,4.60
2023-02-28T05:17:06.763Z,4.80
2023-02-28T05:19:36.786Z,4.80
2023-02-28T05:22:05.268Z,4.40
2023-02-28T05:24:41.330Z,5.00
2023-02-28T05:27:10.033Z,5.00
2023-02-28T05:29:42.914Z,5.80
2023-02-28T05:32:14.897Z,6.00
2023-02-28T05:34:43.370Z,5.00
2023-02-28T05:37:15.207Z,5.30
2023-02-28T05:39:44.029Z,4.60
2023-02-28T05:42:14.546Z,4.60
2023-02-28T05:44:44.770Z,4.30
2023-02-28T05:47:16.580Z,4.70
2023-02-28T05:49:45.334Z,4.60
2023-02-28T05:52:15.541Z,4.30
2023-02-28T05:54:43.930Z,5.30
2023-02-28T05:57:19.076Z,5.40
2023-02-28T05:59:52.986Z,5.10
2023-02-28T06:02:21.524Z,5.10
2023-02-28T06:04:50.061Z,5.10
2023-02-28T06:07:18.951Z,4.90
2023-02-28T06:09:47.738Z,5.20
2023-02-28T06:12:16.735Z,5.20
2023-02-28T06:14:45.117Z,4.00
2023-02-28T06:17:18.109Z,5.00
2023-02-28T06:19:47.615Z,4.90
2023-02-28T06:22:16.100Z,4.90
2023-02-28T06:24:44.589Z,5.20
2023-02-28T06:27:13.072Z,5.80
2023-02-28T06:29:41.390Z,4.60
2023-02-28T06:32:10.727Z,5.10
2023-02-28T06:34:40.575Z,4.70
2023-02-28T06:37:09.060Z,4.30
2023-02-28T06:39:40.512Z,4.70
2023-02-28T06:42:09.199Z,4.70
2023-02-28T06:44:37.579Z,4.20
2023-02-28T06:47:06.681Z,4.40
2023-02-28T06:49:39.982Z,4.50
2023-02-28T06:52:11.120Z,4.40
2023-02-28T06:54:39.709Z,5.00
2023-02-28T06:57:08.500Z,4.10
2023-02-28T06:59:37.704Z,5.00
2023-02-28T07:02:08.142Z,4.80
2023-02-28T07:04:37.045Z,5.30
2023-02-28T07:07:08.577Z,5.00
2023-02-28T07:09:38.903Z,4.80
2023-02-28T07:12:07.693Z,5.00
2023-02-28T07:14:37.946Z,5.30
2023-02-28T07:17:08.963Z,5.40
2023-02-28T07:19:40.373Z,4.90
2023-02-28T07:22:08.700Z,4.80
2023-02-28T07:24:37.185Z,5.20
2023-02-28T07:27:05.562Z,5.00
2023-02-28T07:29:34.762Z,5.40
2023-02-28T07:32:03.175Z,5.10
2023-02-28T07:34:32.141Z,5.20
2023-02-28T07:37:01.240Z,4.80
2023-02-28T07:39:29.629Z,5.00
2023-02-28T07:41:58.216Z,4.80
2023-02-28T07:44:28.041Z,5.00
2023-02-28T07:46:56.671Z,4.80
2023-02-28T07:49:27.403Z,4.80
2023-02-28T07:51:56.044Z,5.00
2023-02-28T07:54:25.762Z,4.80
2023-02-28T07:56:54.447Z,5.20
2023-02-28T07:59:23.545Z,5.60
2023-02-28T08:01:52.324Z,5.10
2023-02-28T08:04:20.821Z,5.00
2023-02-28T08:07:00.681Z,4.90
2023-02-28T08:12:02.760Z,4.60
2023-02-28T08:14:31.550Z,4.90
2023-02-28T08:17:00.146Z,5.70
2023-02-28T08:19:29.546Z,4.30
2023-02-28T08:21:58.134Z,5.20
2023-02-28T08:24:26.717Z,4.50
2023-02-28T08:26:56.048Z,4.90
2023-02-28T08:29:24.934Z,4.70
2023-02-28T08:31:53.541Z,5.40
2023-02-28T08:34:22.286Z,5.20
2023-02-28T08:36:50.667Z,4.80
2023-02-28T08:39:23.047Z,4.90
2023-02-28T08:42:02.134Z,4.90
2023-02-28T08:44:35.436Z,4.60
2023-02-28T08:47:03.853Z,4.30
2023-02-28T08:49:32.449Z,4.30
2023-02-28T08:52:01.133Z,4.80
2023-02-28T08:54:32.685Z,4.30
2023-02-28T08:57:01.676Z,5.10
2023-02-28T08:59:30.584Z,4.50
2023-02-28T09:02:04.095Z,4.40
2023-02-28T09:04:32.767Z,4.10
2023-02-28T09:07:01.258Z,5.60
2023-02-28T09:09:29.728Z,6.30
2023-02-28T09:11:58.217Z,5.90
2023-02-28T09:14:29.767Z,5.30
2023-02-28T09:16:58.175Z,5.10
2023-02-28T09:19:26.632Z,4.70
2023-02-28T09:21:55.016Z,4.60
2023-02-28T09:24:23.605Z,5.00
2023-02-28T09:27:03.815Z,4.90
2023-02-28T09:29:34.715Z,4.70
2023-02-28T09:32:03.574Z,4.70
2023-02-28T09:34:32.801Z,4.80
2023-02-28T09:37:01.232Z,5.20
2023-02-28T09:39:30.273Z,5.40
2023-02-28T09:41:59.059Z,5.40
2023-02-28T09:44:33.424Z,5.40
2023-02-28T09:47:07.191Z,5.20
2023-02-28T09:49:44.871Z,5.00
2023-02-28T09:52:20.568Z,5.20
2023-02-28T09:54:49.030Z,5.20
2023-02-28T09:57:44.030Z,5.10
2023-02-28T10:00:26.239Z,6.30
2023-02-28T10:03:11.841Z,5.60
2023-02-28T10:06:04.676Z,5.30
2023-02-28T10:08:44.019Z,5.70
2023-02-28T10:11:17.764Z,5.80
2023-02-28T10:14:03.817Z,5.60
2023-02-28T10:16:39.821Z,5.90
2023-02-28T10:19:15.952Z,6.10
2023-02-28T10:21:59.337Z,6.00
2023-02-28T10:24:47.342Z,6.00
2023-02-28T10:27:23.154Z,6.30
2023-02-28T10:29:54.631Z,6.70
2023-02-28T10:32:46.656Z,6.80
2023-02-28T10:35:20.670Z,7.10
2023-02-28T10:37:57.455Z,6.60
2023-02-28T10:40:27.360Z,6.70
2023-02-28T10:43:04.961Z,6.60
2023-02-28T10:45:36.012Z,6.40
2023-02-28T10:48:16.872Z,6.70
2023-02-28T10:50:46.384Z,6.60
2023-02-28T10:53:27.190Z,7.20
2023-02-28T10:56:09.253Z,6.80
2023-02-28T10:58:52.993Z,6.80
2023-02-28T11:01:24.908Z,6.60
2023-02-28T11:03:53.747Z,6.90
2023-02-28T11:06:28.486Z,6.20
2023-02-28T11:08:59.222Z,6.00
2023-02-28T11:11:30.823Z,6.10
2023-02-28T11:14:06.001Z,6.60
2023-02-28T11:16:36.636Z,6.30
2023-02-28T11:19:08.004Z,6.60
2023-02-28T11:21:41.393Z,6.70
2023-02-28T11:24:24.916Z,6.10
2023-02-28T11:26:53.399Z,6.00
2023-02-28T11:29:48.210Z,6.20
2023-02-28T11:32:23.158Z,6.00
2023-02-28T11:35:19.060Z,5.90
2023-02-28T11:37:47.642Z,6.70
2023-02-28T11:40:17.846Z,7.10
2023-02-28T11:43:23.826Z,7.20
2023-02-28T11:46:07.557Z,7.30
2023-02-28T11:49:08.103Z,7.60
2023-02-28T11:51:43.446Z,7.30
2023-02-28T11:54:27.518Z,6.20
2023-02-28T11:57:10.520Z,6.40
2023-02-28T11:59:39.515Z,6.10
2023-02-28T12:02:10.735Z,7.10
2023-02-28T12:04:58.194Z,6.30
2023-02-28T12:07:40.605Z,7.10
2023-02-28T12:10:28.441Z,7.30
2023-02-28T12:13:18.836Z,7.00
2023-02-28T12:16:06.065Z,7.70
2023-02-28T12:18:47.147Z,7.80
2023-02-28T12:21:22.181Z,7.60
2023-02-28T12:24:11.955Z,7.00
2023-02-28T12:26:45.775Z,6.70
2023-02-28T12:29:21.834Z,6.30
2023-02-28T12:32:00.466Z,6.50
2023-02-28T12:34:32.739Z,7.70
2023-02-28T12:37:03.959Z,7.20
2023-02-28T12:39:48.598Z,6.40
2023-02-28T12:42:23.858Z,6.40
2023-02-28T12:45:14.481Z,6.40
2023-02-28T12:47:43.762Z,7.20
2023-02-28T12:50:15.215Z,6.70
2023-02-28T12:52:54.448Z,5.90
2023-02-28T12:55:45.250Z,5.90
2023-02-28T13:00:27.061Z,6.20
2023-02-28T13:03:31.484Z,6.40
2023-02-28T13:06:15.633Z,6.20
2023-02-28T13:08:50.056Z,5.70
2023-02-28T13:11:35.766Z,5.50
2023-02-28T13:14:21.437Z,5.00
2023-02-28T13:17:00.697Z,4.90
2023-02-28T13:19:31.805Z,4.70
2023-02-28T13:22:01.013Z,5.40
2023-02-28T13:24:43.858Z,5.30
2023-02-28T13:27:15.169Z,5.20
2023-02-28T13:29:45.695Z,5.10
2023-02-28T13:32:34.561Z,5.10
2023-02-28T13:35:02.938Z,5.50
2023-02-28T13:37:37.309Z,6.10
2023-02-28T13:40:11.884Z,5.30
2023-02-28T13:42:50.932Z,5.70
2023-02-28T13:45:31.523Z,5.50
2023-02-28T13:48:04.172Z,5.30
2023-02-28T13:50:39.820Z,5.20
2023-02-28T13:53:14.555Z,5.40
2023-02-28T13:55:44.881Z,5.30
2023-02-28T13:58:25.335Z,5.50
2023-02-28T14:01:23.078Z,5.60
2023-02-28T14:04:17.615Z,5.30
2023-02-28T14:06:50.119Z,5.00
2023-02-28T14:09:20.605Z,5.40
2023-02-28T14:11:52.669Z,5.30
2023-02-28T14:14:37.126Z,5.00
2023-02-28T14:17:10.944Z,5.10
2023-02-28T14:19:39.720Z,5.80
2023-02-28T14:22:46.838Z,5.60
2023-02-28T14:25:34.451Z,4.90
2023-02-28T14:28:41.234Z,6.00
2023-02-28T14:31:35.947Z,6.00
2023-02-28T14:34:27.786Z,5.60
2023-02-28T14:36:56.124Z,6.00
2023-02-28T14:39:25.786Z,5.60
2023-02-28T14:41:54.317Z,5.70
2023-02-28T14:44:27.000Z,5.30
2023-02-28T14:46:57.701Z,5.60
2023-02-28T14:52:11.028Z,5.80
2023-02-28T14:54:40.078Z,5.60
2023-02-28T14:57:27.502Z,5.80
2023-02-28T15:00:23.225Z,5.40
2023-02-28T15:02:51.810Z,5.50
2023-02-28T15:05:23.155Z,5.80
2023-02-28T15:08:23.084Z,5.80
2023-02-28T15:13:33.247Z,5.40
2023-02-28T15:16:04.072Z,4.90
2023-02-28T15:18:54.075Z,5.60
2023-02-28T15:21:26.274Z,5.50
2023-02-28T15:24:25.133Z,5.40
2023-02-28T15:27:01.513Z,5.30
2023-02-28T15:29:30.909Z,5.70
2023-02-28T15:32:05.771Z,5.60
2023-02-28T15:34:44.450Z,5.90
2023-02-28T15:37:42.578Z,5.80
2023-02-28T15:40:19.112Z,6.30
2023-02-28T15:43:07.561Z,6.60
2023-02-28T15:45:43.045Z,6.70
2023-02-28T15:48:18.861Z,5.80
2023-02-28T15:50:55.650Z,7.00
2023-02-28T15:53:26.790Z,6.90
2023-02-28T15:56:03.675Z,6.90
2023-02-28T15:58:32.450Z,6.90
2023-02-28T16:01:09.024Z,6.30
2023-02-28T16:03:43.136Z,7.70
2023-02-28T16:06:17.973Z,7.40
2023-02-28T16:08:46.759Z,7.10
2023-02-28T16:11:16.470Z,5.40
2023-02-28T16:13:44.958Z,6.30
2023-02-28T16:16:19.532Z,6.90
2023-02-28T16:18:48.062Z,6.60
2023-02-28T16:21:16.341Z,7.20
2023-02-28T16:23:45.029Z,7.30
2023-02-28T16:26:20.296Z,6.80
2023-02-28T16:28:49.061Z,7.70
2023-02-28T16:31:17.956Z,7.20
2023-02-28T16:33:46.643Z,8.10
2023-02-28T16:36:19.920Z,8.40
2023-02-28T16:38:51.700Z,8.40
2023-02-28T16:41:22.441Z,8.80
2023-02-28T16:46:21.084Z,9.10
2023-02-28T16:48:52.779Z,9.40
2023-02-28T16:51:23.031Z,8.10
2023-02-28T16:53:57.498Z,9.00
2023-02-28T16:56:28.813Z,8.90
2023-02-28T17:01:33.891Z,8.80
2023-02-28T17:04:03.390Z,9.00
2023-02-28T17:06:33.717Z,10.10
2023-02-28T17:09:05.070Z,10.20
2023-02-28T17:11:35.487Z,11.70
2023-02-28T17:16:48.775Z,12.70
2023-02-28T17:19:22.311Z,12.40
2023-02-28T17:21:52.499Z,11.90
2023-02-28T17:24:30.867Z,12.60
2023-02-28T17:27:02.553Z,11.60
2023-02-28T17:29:32.498Z,13.80
2023-02-28T17:32:17.331Z,13.90
2023-02-28T17:34:47.420Z,12.70
2023-02-28T17:37:17.597Z,14.20
2023-02-28T17:39:46.444Z,13.90
2023-02-28T17:42:17.586Z,14.00
2023-02-28T17:44:46.274Z,15.20
2023-02-28T17:47:14.758Z,14.20
2023-02-28T17:49:43.965Z,12.90
2023-02-28T17:52:12.447Z,11.60
2023-02-28T17:54:41.643Z,11.30
2023-02-28T17:57:14.546Z,10.30
2023-02-28T17:59:44.141Z,10.30
2023-02-28T18:02:13.850Z,9.50
2023-02-28T18:04:47.556Z,11.40
2023-02-28T18:07:16.870Z,9.00
2023-02-28T18:09:45.553Z,11.80
2023-02-28T18:12:14.035Z,12.60
2023-02-28T18:14:43.648Z,12.00
2023-02-28T18:17:13.461Z,11.60
2023-02-28T18:19:44.397Z,10.50
2023-02-28T18:22:13.194Z,10.70
2023-02-28T18:24:41.571Z,10.90
2023-02-28T18:27:11.383Z,10.40
2023-02-28T18:29:41.848Z,11.20
2023-02-28T18:32:10.576Z,10.60
2023-02-28T18:34:38.990Z,10.60
2023-02-28T18:37:07.468Z,10.60
2023-02-28T18:39:35.953Z,11.50
2023-02-28T18:42:04.645Z,11.30
2023-02-28T18:44:33.330Z,10.80
2023-02-28T18:47:02.475Z,11.10
2023-02-28T18:49:35.932Z,11.40
2023-02-28T18:52:04.656Z,11.30
2023-02-28T18:54:33.404Z,11.40
2023-02-28T18:57:01.719Z,11.00
2023-02-28T18:59:30.370Z,10.80
2023-02-28T19:01:58.857Z,12.70
2023-02-28T19:04:27.286Z,12.60
2023-02-28T19:06:55.618Z,11.90
2023-02-28T19:09:24.000Z,11.30
2023-02-28T19:11:52.384Z,10.60
2023-02-28T19:14:22.102Z,11.10
2023-02-28T19:16:52.300Z,11.20
2023-02-28T19:19:20.803Z,11.70
2023-02-28T19:21:49.596Z,10.60
2023-02-28T19:24:20.079Z,11.00
2023-02-28T19:26:48.715Z,11.00
2023-02-28T19:29:17.097Z,10.30
2023-02-28T19:31:46.293Z,10.80
2023-02-28T19:34:16.112Z,9.40
2023-02-28T19:36:44.907Z,9.70
2023-02-28T19:39:13.901Z,9.50
2023-02-28T19:41:42.385Z,8.90
2023-02-28T19:44:10.770Z,8.90
2023-02-28T19:46:44.709Z,8.60
2023-02-28T19:49:13.065Z,9.50
2023-02-28T19:51:41.853Z,8.40
2023-02-28T19:54:13.208Z,9.20
2023-02-28T19:56:42.204Z,8.00
2023-02-28T19:59:21.081Z,9.60
2023-02-28T20:01:54.940Z,9.40
2023-02-28T20:04:24.490Z,10.70
2023-02-28T20:06:55.724Z,9.90
2023-02-28T20:09:24.494Z,9.50
2023-02-28T20:11:59.567Z,9.80
2023-02-28T20:14:28.122Z,10.10
2023-02-28T20:16:59.633Z,9.80
2023-02-28T20:19:28.258Z,9.30
2023-02-28T20:21:56.950Z,9.00
2023-02-28T20:24:26.252Z,10.10
2023-02-28T20:26:55.542Z,9.80
2023-02-28T20:31:53.865Z,8.90
2023-02-28T20:34:23.671Z,8.90
2023-02-28T20:36:52.360Z,9.60
2023-02-28T20:39:20.746Z,9.40
2023-02-28T20:41:49.328Z,9.70
2023-02-28T20:44:20.065Z,9.10
2023-02-28T20:46:48.556Z,8.60
2023-02-28T20:49:17.254Z,9.60
2023-02-28T20:51:45.735Z,9.80
2023-02-28T20:54:16.179Z,9.30
2023-02-28T20:56:44.945Z,9.80
2023-02-28T20:59:13.428Z,9.50
2023-02-28T21:01:44.561Z,9.90
2023-02-28T21:04:13.011Z,9.80
2023-02-28T21:06:47.732Z,9.40
2023-02-28T21:09:18.539Z,9.50
2023-02-28T21:11:46.912Z,10.00
2023-02-28T21:14:17.136Z,9.60
2023-02-28T21:16:47.364Z,10.40
2023-02-28T21:19:15.952Z,9.40
2023-02-28T21:21:44.791Z,9.20
2023-02-28T21:24:14.736Z,9.80
2023-02-28T21:26:44.600Z,9.90
2023-02-28T21:29:13.590Z,8.80
2023-02-28T21:31:42.378Z,8.90
2023-02-28T21:34:12.613Z,8.80
2023-02-28T21:36:45.930Z,8.70
2023-02-28T21:39:17.340Z,9.30
2023-02-28T21:41:46.637Z,9.40
2023-02-28T21:44:19.112Z,9.00
2023-02-28T21:46:49.194Z,9.40
2023-02-28T21:49:17.937Z,10.10
2023-02-28T21:51:47.353Z,9.70
2023-02-28T21:54:15.717Z,10.70
2023-02-28T21:56:44.712Z,9.60
2023-02-28T21:59:13.300Z,7.20
2023-02-28T22:01:44.193Z,9.40
2023-02-28T22:04:25.324Z,11.30
2023-02-28T22:06:59.643Z,10.70
2023-02-28T22:09:28.125Z,10.80
2023-02-28T22:11:57.585Z,10.70
2023-02-28T22:14:26.535Z,11.30
2023-02-28T22:17:01.026Z,10.10
2023-02-28T22:19:29.644Z,11.00
2023-02-28T22:21:58.019Z,10.90
2023-02-28T22:24:26.516Z,11.70
2023-02-28T22:26:54.998Z,11.30
2023-02-28T22:29:23.799Z,11.00
2023-02-28T22:31:52.213Z,11.50
2023-02-28T22:34:20.851Z,10.70
2023-02-28T22:36:49.646Z,10.60
2023-02-28T22:39:18.232Z,11.00
2023-02-28T22:41:46.619Z,10.70
2023-02-28T22:44:25.227Z,10.40
2023-02-28T22:46:54.514Z,9.70
2023-02-28T22:49:23.016Z,9.70
2023-02-28T22:51:52.116Z,8.70
2023-02-28T22:54:20.698Z,10.30
2023-02-28T22:56:50.424Z,10.60
2023-02-28T22:59:19.305Z,9.50
2023-02-28T23:01:48.015Z,10.70
2023-02-28T23:04:17.129Z,9.80
2023-02-28T23:06:45.867Z,9.10
2023-02-28T23:09:18.356Z,9.50
2023-02-28T23:11:50.392Z,9.90
2023-02-28T23:14:20.369Z,9.70
2023-02-28T23:16:52.420Z,9.80
2023-02-28T23:19:26.834Z,10.80
2023-02-28T23:21:56.035Z,10.30
2023-02-28T23:24:25.960Z,9.40
2023-02-28T23:26:56.616Z,10.10
2023-02-28T23:29:27.939Z,9.90
2023-02-28T23:31:56.442Z,10.00
2023-02-28T23:34:32.386Z,10.40
2023-02-28T23:37:01.986Z,10.90
2023-02-28T23:39:30.777Z,10.70
2023-02-28T23:41:59.798Z,7.60
2023-02-28T23:44:28.261Z,9.30
2023-02-28T23:46:56.646Z,9.90
2023-02-28T23:49:26.081Z,9.90
2023-02-28T23:51:54.783Z,9.90
2023-02-28T23:54:24.854Z,10.20
2023-02-28T23:56:54.371Z,9.00
2023-02-28T23:59:22.957Z,7.70
